createdAt,value
2023-03-06T00:01:57.787Z,20.77
2023-03-06T00:04:24.898Z,22.35
2023-03-06T00:06:52.005Z,19.13
2023-03-06T00:09:18.923Z,22.05
2023-03-06T00:11:46.042Z,21.40
2023-03-06T00:14:12.997Z,23.33
2023-03-06T00:16:40.009Z,22.30
2023-03-06T00:19:06.944Z,21.38
2023-03-06T00:21:34.033Z,24.80
2023-03-06T00:24:01.036Z,22.23
2023-03-06T00:26:28.074Z,18.02
2023-03-06T00:28:55.334Z,23.13
2023-03-06T00:31:22.746Z,23.30
2023-03-06T00:33:50.021Z,22.85
2023-03-06T00:36:18.259Z,19.83
2023-03-06T00:38:45.272Z,23.50
2023-03-06T00:41:12.891Z,23.80
2023-03-06T00:43:40.046Z,19.70
2023-03-06T00:46:08.319Z,23.27
2023-03-06T00:48:35.554Z,20.60
2023-03-06T00:51:02.569Z,26.02
2023-03-06T00:53:29.644Z,23.55
2023-03-06T00:55:56.793Z,22.50
2023-03-06T00:58:23.973Z,21.17
2023-03-06T01:00:52.148Z,22.95
2023-03-06T01:03:19.342Z,18.33
2023-03-06T01:05:46.681Z,23.02
2023-03-06T01:08:13.672Z,19.42
2023-03-06T01:10:40.822Z,21.13
2023-03-06T01:13:09.803Z,25.23
2023-03-06T01:15:36.752Z,21.60
2023-03-06T01:18:03.894Z,22.40
2023-03-06T01:20:31.007Z,27.08
2023-03-06T01:22:58.882Z,25.17
2023-03-06T01:25:26.039Z,22.05
2023-03-06T01:27:53.296Z,22.92
2023-03-06T01:30:20.523Z,24.08
2023-03-06T01:32:48.643Z,23.45
2023-03-06T01:35:15.843Z,21.88
2023-03-06T01:37:43.365Z,28.25
2023-03-06T01:40:11.534Z,24.23
2023-03-06T01:42:38.557Z,23.88
2023-03-06T01:45:11.574Z,27.20
2023-03-06T01:47:38.669Z,25.60
2023-03-06T01:50:07.058Z,24.48
2023-03-06T01:52:56.165Z,23.25
2023-03-06T01:55:27.383Z,23.88
2023-03-06T01:57:57.867Z,24.30
2023-03-06T02:00:28.677Z,23.30
2023-03-06T02:03:16.291Z,22.15
2023-03-06T02:05:44.560Z,21.08
2023-03-06T02:08:12.493Z,23.33
2023-03-06T02:10:50.457Z,23.15
2023-03-06T02:13:17.449Z,21.05
2023-03-06T02:15:44.498Z,19.50
2023-03-06T02:18:11.544Z,23.20
2023-03-06T02:20:43.905Z,25.08
2023-03-06T02:23:19.919Z,21.35
2023-03-06T02:25:50.909Z,21.73
2023-03-06T02:30:47.139Z,17.90
2023-03-06T02:33:15.307Z,20.77
2023-03-06T02:35:46.700Z,18.77
2023-03-06T02:38:15.204Z,19.92
2023-03-06T02:40:43.333Z,21.17
2023-03-06T02:43:11.278Z,19.70
2023-03-06T02:45:39.945Z,23.23
2023-03-06T02:48:07.235Z,25.30
2023-03-06T02:50:35.771Z,18.95
2023-03-06T02:53:02.880Z,20.45
2023-03-06T02:55:31.305Z,23.20
2023-03-06T02:57:58.402Z,20.52
2023-03-06T03:00:26.091Z,21.10
2023-03-06T03:02:53.914Z,23.23
2023-03-06T03:05:21.086Z,22.02
2023-03-06T03:07:54.460Z,23.58
2023-03-06T03:10:21.922Z,19.80
2023-03-06T03:12:49.847Z,23.13
2023-03-06T03:15:17.749Z,23.38
2023-03-06T03:17:45.198Z,21.92
2023-03-06T03:20:14.194Z,21.45
2023-03-06T03:22:41.455Z,17.92
2023-03-06T03:25:09.050Z,20.83
2023-03-06T03:27:37.105Z,19.05
2023-03-06T03:30:05.195Z,21.85
2023-03-06T03:32:32.826Z,22.23
2023-03-06T03:35:00.171Z,25.65
2023-03-06T03:37:28.397Z,20.17
2023-03-06T03:39:56.644Z,22.25
2023-03-06T03:42:23.627Z,24.40
2023-03-06T03:44:50.767Z,23.90
2023-03-06T03:47:20.985Z,25.25
2023-03-06T03:49:48.702Z,22.80
2023-03-06T03:52:15.797Z,24.50
2023-03-06T03:54:42.826Z,21.23
2023-03-06T03:57:10.247Z,23.27
2023-03-06T03:59:41.629Z,23.85
2023-03-06T04:02:15.186Z,23.25
2023-03-06T04:04:51.070Z,26.27
2023-03-06T04:07:18.439Z,25.33
2023-03-06T04:09:45.970Z,27.42
2023-03-06T04:12:13.412Z,24.98
2023-03-06T04:14:40.549Z,22.27
2023-03-06T04:17:08.281Z,24.20
2023-03-06T04:19:35.429Z,23.20
2023-03-06T04:22:02.628Z,20.65
2023-03-06T04:24:32.017Z,23.17
2023-03-06T04:26:59.085Z,25.50
2023-03-06T04:29:27.079Z,25.20
2023-03-06T04:31:54.172Z,25.65
2023-03-06T04:34:21.802Z,22.05
2023-03-06T04:36:48.835Z,22.30
2023-03-06T04:39:17.512Z,21.38
2023-03-06T04:41:44.757Z,25.05
2023-03-06T04:44:11.896Z,27.58
2023-03-06T04:46:38.954Z,28.10
2023-03-06T04:49:06.033Z,24.42
2023-03-06T04:51:33.137Z,31.27
2023-03-06T04:54:00.053Z,21.92
2023-03-06T04:56:26.999Z,34.08
2023-03-06T04:58:53.955Z,25.15
2023-03-06T05:01:21.056Z,28.90
2023-03-06T05:03:50.131Z,28.00
2023-03-06T05:06:17.216Z,27.40
2023-03-06T05:08:46.787Z,26.50
2023-03-06T05:11:14.197Z,26.30
2023-03-06T05:13:41.584Z,22.13
2023-03-06T05:16:09.057Z,23.02
2023-03-06T05:18:36.803Z,27.02
2023-03-06T05:21:04.320Z,29.25
2023-03-06T05:23:34.372Z,23.65
2023-03-06T05:26:01.516Z,24.08
2023-03-06T05:28:28.807Z,25.50
2023-03-06T05:30:56.148Z,23.73
2023-03-06T05:33:23.341Z,25.92
2023-03-06T05:35:52.247Z,28.35
2023-03-06T05:38:19.612Z,27.67
2023-03-06T05:40:46.643Z,25.38
2023-03-06T05:43:13.722Z,27.48
2023-03-06T05:45:42.446Z,25.45
2023-03-06T05:48:10.781Z,26.17
2023-03-06T05:50:38.004Z,25.75
2023-03-06T05:53:05.855Z,26.83
2023-03-06T05:55:32.897Z,25.20
2023-03-06T05:58:00.370Z,25.33
2023-03-06T06:00:27.797Z,27.67
2023-03-06T06:02:54.937Z,27.58
2023-03-06T06:05:23.339Z,26.05
2023-03-06T06:07:50.360Z,24.90
2023-03-06T06:10:18.034Z,24.77
2023-03-06T06:12:45.060Z,28.05
2023-03-06T06:15:13.226Z,23.95
2023-03-06T06:17:40.279Z,28.15
2023-03-06T06:20:10.903Z,29.63
2023-03-06T06:22:41.053Z,35.05
2023-03-06T06:25:08.821Z,27.27
2023-03-06T06:27:36.351Z,29.40
2023-03-06T06:30:04.771Z,25.08
2023-03-06T06:32:32.332Z,28.83
2023-03-06T06:34:59.563Z,24.52
2023-03-06T06:37:27.422Z,26.77
2023-03-06T06:39:54.852Z,26.50
2023-03-06T06:42:32.631Z,26.70
2023-03-06T06:45:01.440Z,25.88
2023-03-06T06:47:28.673Z,28.52
2023-03-06T06:49:56.739Z,29.25
2023-03-06T06:52:24.247Z,27.90
2023-03-06T06:54:52.190Z,27.23
2023-03-06T06:57:19.749Z,30.67
2023-03-06T06:59:46.903Z,30.48
2023-03-06T07:02:14.923Z,29.92
2023-03-06T07:04:52.740Z,29.83
2023-03-06T07:07:27.794Z,36.28
2023-03-06T07:09:55.507Z,34.60
2023-03-06T07:12:23.922Z,38.42
2023-03-06T07:14:51.901Z,35.22
2023-03-06T07:17:19.353Z,29.98
2023-03-06T07:19:46.775Z,31.30
2023-03-06T07:22:14.967Z,27.48
2023-03-06T07:24:42.477Z,33.15
2023-03-06T07:27:09.900Z,29.60
2023-03-06T07:29:37.065Z,31.45
2023-03-06T07:32:04.290Z,31.85
2023-03-06T07:34:31.372Z,36.80
2023-03-06T07:36:58.642Z,31.90
2023-03-06T07:39:25.995Z,27.65
2023-03-06T07:41:53.657Z,32.20
2023-03-06T07:44:22.393Z,33.30
2023-03-06T07:46:49.646Z,30.77
2023-03-06T07:49:17.806Z,32.85
2023-03-06T07:51:45.799Z,36.10
2023-03-06T07:54:12.923Z,32.15
2023-03-06T07:56:39.987Z,28.38
2023-03-06T07:59:07.437Z,33.17
2023-03-06T08:01:36.596Z,32.35
2023-03-06T08:04:05.870Z,27.40
2023-03-06T08:06:33.738Z,30.10
2023-03-06T08:09:00.889Z,32.42
2023-03-06T08:11:29.061Z,33.25
2023-03-06T08:13:56.662Z,29.52
2023-03-06T08:16:25.921Z,32.42
2023-03-06T08:18:53.954Z,30.67
2023-03-06T08:21:23.995Z,28.10
2023-03-06T08:23:51.280Z,31.05
2023-03-06T08:26:24.116Z,28.40
2023-03-06T08:28:55.296Z,29.05
2023-03-06T08:31:25.468Z,29.85
2023-03-06T08:33:53.678Z,30.15
2023-03-06T08:36:20.866Z,28.00
2023-03-06T08:38:48.407Z,29.17
2023-03-06T08:41:15.461Z,28.30
2023-03-06T08:43:42.728Z,24.92
2023-03-06T08:46:12.847Z,28.58
2023-03-06T08:48:40.304Z,28.85
2023-03-06T08:51:09.709Z,29.65
2023-03-06T08:53:42.981Z,27.25
2023-03-06T08:56:22.024Z,31.15
2023-03-06T08:58:49.080Z,29.27
2023-03-06T09:01:29.399Z,24.90
2023-03-06T09:03:57.959Z,26.50
2023-03-06T09:06:25.271Z,33.22
2023-03-06T09:08:52.877Z,26.98
2023-03-06T09:11:20.108Z,27.25
2023-03-06T09:13:47.615Z,29.08
2023-03-06T09:16:14.682Z,29.33
2023-03-06T09:18:41.874Z,24.88
2023-03-06T09:21:09.308Z,31.20
2023-03-06T09:23:37.220Z,28.05
2023-03-06T09:26:05.229Z,26.98
2023-03-06T09:28:35.781Z,37.47
2023-03-06T09:31:07.047Z,28.60
2023-03-06T09:33:34.145Z,25.73
2023-03-06T09:36:02.183Z,24.98
2023-03-06T09:38:29.487Z,26.75
2023-03-06T09:41:26.771Z,26.58
2023-03-06T09:43:56.640Z,25.58
2023-03-06T09:46:47.261Z,32.50
2023-03-06T09:49:51.902Z,26.75
2023-03-06T09:52:19.013Z,21.13
2023-03-06T09:54:47.832Z,26.85
2023-03-06T09:57:42.761Z,26.02
2023-03-06T10:00:26.754Z,29.63
2023-03-06T10:03:19.585Z,28.50
2023-03-06T10:05:59.892Z,26.63
2023-03-06T10:08:43.658Z,31.20
2023-03-06T10:11:11.172Z,26.15
2023-03-06T10:13:50.721Z,26.30
2023-03-06T10:16:27.121Z,29.88
2023-03-06T10:19:05.717Z,20.83
2023-03-06T10:21:59.146Z,27.58
2023-03-06T10:24:53.342Z,29.08
2023-03-06T10:27:47.074Z,24.48
2023-03-06T10:30:17.041Z,28.40
2023-03-06T10:32:55.337Z,27.80
2023-03-06T10:35:24.994Z,22.23
2023-03-06T10:37:52.416Z,29.05
2023-03-06T10:40:22.535Z,26.80
2023-03-06T10:42:53.965Z,30.05
2023-03-06T10:45:29.933Z,25.33
2023-03-06T10:48:11.128Z,28.00
2023-03-06T10:50:38.384Z,24.98
2023-03-06T10:53:07.401Z,25.73
2023-03-06T10:55:35.387Z,25.70
2023-03-06T10:58:22.116Z,24.95
2023-03-06T11:01:02.769Z,32.15
2023-03-06T11:03:30.369Z,28.25
2023-03-06T11:06:10.834Z,27.95
2023-03-06T11:08:39.818Z,27.98
2023-03-06T11:11:22.450Z,24.85
2023-03-06T11:13:58.917Z,24.95
2023-03-06T11:16:30.801Z,25.58
2023-03-06T11:19:00.002Z,20.83
2023-03-06T11:21:31.754Z,20.63
2023-03-06T11:24:19.031Z,20.63
2023-03-06T11:26:50.985Z,22.02
2023-03-06T11:29:35.705Z,20.77
2023-03-06T11:32:30.236Z,19.15
2023-03-06T11:35:10.187Z,17.60
2023-03-06T11:37:59.345Z,22.08
2023-03-06T11:40:32.287Z,21.73
2023-03-06T11:43:30.244Z,20.67
2023-03-06T11:46:12.473Z,17.30
2023-03-06T11:48:42.472Z,19.23
2023-03-06T11:51:23.618Z,20.63
2023-03-06T11:54:05.176Z,19.17
2023-03-06T11:56:58.056Z,20.25
2023-03-06T11:59:59.130Z,17.58
2023-03-06T12:03:03.923Z,18.58
2023-03-06T12:05:45.088Z,20.75
2023-03-06T12:08:45.273Z,20.60
2023-03-06T12:11:20.216Z,21.65
2023-03-06T12:14:11.574Z,18.38
2023-03-06T12:16:58.804Z,20.10
2023-03-06T12:19:44.717Z,21.75
2023-03-06T12:22:15.093Z,16.27
2023-03-06T12:25:04.127Z,17.05
2023-03-06T12:27:53.047Z,24.85
2023-03-06T12:30:48.400Z,19.67
2023-03-06T12:33:35.769Z,21.50
2023-03-06T12:36:05.797Z,19.30
2023-03-06T12:39:07.157Z,18.05
2023-03-06T12:41:34.481Z,21.35
2023-03-06T12:44:29.473Z,17.98
2023-03-06T12:47:09.441Z,16.90
2023-03-06T12:49:38.995Z,17.80
2023-03-06T12:52:11.018Z,15.45
2023-03-06T12:54:39.599Z,15.63
2023-03-06T12:57:08.592Z,15.10
2023-03-06T12:59:37.584Z,14.23
2023-03-06T13:02:10.627Z,12.13
2023-03-06T13:04:51.848Z,15.20
2023-03-06T13:07:30.918Z,9.95
2023-03-06T13:10:08.915Z,13.55
2023-03-06T13:12:41.744Z,17.92
2023-03-06T13:15:41.290Z,16.10
2023-03-06T13:18:23.281Z,13.68
2023-03-06T13:20:53.716Z,16.20
2023-03-06T13:23:30.413Z,17.00
2023-03-06T13:25:58.280Z,14.98
2023-03-06T13:28:50.113Z,15.02
2023-03-06T13:31:32.630Z,14.93
2023-03-06T13:34:03.644Z,13.50
2023-03-06T13:36:35.270Z,12.18
2023-03-06T13:39:06.263Z,15.57
2023-03-06T13:41:37.814Z,12.25
2023-03-06T13:44:25.403Z,13.65
2023-03-06T13:47:05.380Z,18.88
2023-03-06T13:49:32.520Z,14.27
2023-03-06T13:52:10.315Z,14.43
2023-03-06T13:55:29.080Z,14.82
2023-03-06T13:58:18.251Z,16.67
2023-03-06T14:01:02.252Z,10.70
2023-03-06T14:03:40.938Z,12.65
2023-03-06T14:06:36.154Z,9.80
2023-03-06T14:09:25.307Z,13.23
2023-03-06T14:11:55.335Z,12.10
2023-03-06T14:14:29.506Z,10.52
2023-03-06T14:16:57.478Z,10.38
2023-03-06T14:19:24.553Z,11.13
2023-03-06T14:21:55.990Z,10.40
2023-03-06T14:24:38.441Z,12.15
2023-03-06T14:27:05.647Z,9.35
2023-03-06T14:29:33.149Z,9.77
2023-03-06T14:32:01.160Z,11.52
2023-03-06T14:34:30.923Z,11.88
2023-03-06T14:37:02.698Z,12.48
2023-03-06T14:39:43.780Z,15.40
2023-03-06T14:42:21.934Z,11.48
2023-03-06T14:44:49.619Z,10.68
2023-03-06T14:47:29.185Z,10.02
2023-03-06T14:50:35.303Z,13.52
2023-03-06T14:53:14.134Z,11.65
2023-03-06T14:56:06.294Z,12.70
2023-03-06T14:58:36.728Z,11.48
2023-03-06T15:01:06.116Z,13.27
2023-03-06T15:03:42.739Z,13.93
2023-03-06T15:06:31.429Z,12.73
2023-03-06T15:09:02.127Z,13.27
2023-03-06T15:11:56.120Z,10.98
2023-03-06T15:14:33.534Z,11.70
2023-03-06T15:17:18.821Z,15.45
2023-03-06T15:19:47.110Z,12.65
2023-03-06T15:22:37.997Z,13.90
2023-03-06T15:25:21.614Z,10.93
2023-03-06T15:27:52.288Z,12.95
2023-03-06T15:30:23.669Z,12.05
2023-03-06T15:32:50.969Z,12.90
2023-03-06T15:35:32.001Z,12.25
2023-03-06T15:37:59.526Z,12.65
2023-03-06T15:40:28.855Z,24.83
2023-03-06T15:42:56.310Z,13.23
2023-03-06T15:45:24.457Z,14.70
2023-03-06T15:47:52.359Z,15.88
2023-03-06T15:50:25.037Z,13.32
2023-03-06T15:52:52.372Z,13.20
2023-03-06T15:55:21.146Z,13.15
2023-03-06T15:57:54.239Z,12.82
2023-03-06T16:00:34.343Z,13.35
2023-03-06T16:03:01.682Z,11.38
2023-03-06T16:05:29.588Z,10.88
2023-03-06T16:07:57.021Z,13.38
2023-03-06T16:10:25.620Z,9.82
2023-03-06T16:13:02.679Z,14.52
2023-03-06T16:15:29.963Z,13.98
2023-03-06T16:17:57.291Z,12.90
2023-03-06T16:20:26.145Z,13.07
2023-03-06T16:22:54.857Z,11.07
2023-03-06T16:25:23.166Z,14.32
2023-03-06T16:27:55.592Z,18.20
2023-03-06T16:30:22.918Z,12.82
2023-03-06T16:32:50.244Z,17.27
2023-03-06T16:35:18.679Z,18.02
2023-03-06T16:37:46.050Z,15.35
2023-03-06T16:40:33.997Z,16.33
2023-03-06T16:43:01.388Z,13.70
2023-03-06T16:45:28.670Z,13.57
2023-03-06T16:47:56.081Z,19.15
2023-03-06T16:50:30.286Z,22.70
2023-03-06T16:52:57.915Z,13.90
2023-03-06T16:55:26.308Z,14.20
2023-03-06T16:57:53.720Z,14.35
2023-03-06T17:00:21.177Z,18.30
2023-03-06T17:02:48.686Z,13.90
2023-03-06T17:05:16.761Z,16.08
2023-03-06T17:07:44.020Z,13.90
2023-03-06T17:10:13.236Z,13.90
2023-03-06T17:12:40.248Z,13.05
2023-03-06T17:15:07.795Z,16.25
2023-03-06T17:17:35.106Z,17.48
2023-03-06T17:20:02.903Z,11.80
2023-03-06T17:22:32.703Z,13.88
2023-03-06T17:25:04.918Z,13.32
2023-03-06T17:27:32.019Z,10.32
2023-03-06T17:29:59.408Z,13.90
2023-03-06T17:32:27.550Z,14.15
2023-03-06T17:34:56.669Z,14.93
2023-03-06T17:37:24.159Z,14.93
2023-03-06T17:39:51.247Z,12.82
2023-03-06T17:42:18.338Z,13.80
2023-03-06T17:44:46.580Z,14.07
2023-03-06T17:47:13.841Z,15.52
2023-03-06T17:49:40.896Z,12.60
2023-03-06T17:52:08.239Z,13.40
2023-03-06T17:54:36.180Z,14.27
2023-03-06T17:57:06.072Z,12.60
2023-03-06T17:59:35.826Z,12.13
2023-03-06T18:02:03.130Z,16.13
2023-03-06T18:04:30.349Z,14.13
2023-03-06T18:06:58.451Z,11.77
2023-03-06T18:09:25.891Z,13.10
2023-03-06T18:11:53.006Z,16.15
2023-03-06T18:14:20.066Z,13.52
2023-03-06T18:16:47.499Z,14.40
2023-03-06T18:19:15.177Z,14.30
2023-03-06T18:21:42.388Z,14.57
2023-03-06T18:24:11.032Z,11.88
2023-03-06T18:26:38.177Z,16.95
2023-03-06T18:29:05.523Z,16.90
2023-03-06T18:31:34.990Z,17.25
2023-03-06T18:34:03.932Z,11.15
2023-03-06T18:36:32.059Z,12.32
2023-03-06T18:39:03.655Z,12.23
2023-03-06T18:41:30.977Z,15.15
2023-03-06T18:43:59.217Z,13.05
2023-03-06T18:46:26.525Z,12.30
2023-03-06T18:48:55.263Z,13.80
2023-03-06T18:51:22.416Z,13.07
2023-03-06T18:53:50.033Z,12.30
2023-03-06T18:56:19.426Z,10.90
2023-03-06T18:58:46.822Z,11.82
2023-03-06T19:01:14.237Z,13.38
2023-03-06T19:03:42.712Z,11.77
2023-03-06T19:06:11.395Z,11.82
2023-03-06T19:08:39.019Z,14.35
2023-03-06T19:11:08.069Z,13.85
2023-03-06T19:13:35.661Z,16.85
2023-03-06T19:16:03.387Z,12.63
2023-03-06T19:18:30.547Z,12.50
2023-03-06T19:21:12.053Z,11.85
2023-03-06T19:23:39.751Z,13.38
2023-03-06T19:26:07.722Z,12.57
2023-03-06T19:28:35.648Z,13.77
2023-03-06T19:31:19.500Z,15.13
2023-03-06T19:33:48.609Z,16.20
2023-03-06T19:36:16.804Z,16.60
2023-03-06T19:38:44.498Z,17.23
2023-03-06T19:41:13.841Z,19.02
2023-03-06T19:43:41.771Z,15.40
2023-03-06T19:46:15.163Z,16.02
2023-03-06T19:48:42.297Z,13.45
2023-03-06T19:51:09.504Z,12.25
2023-03-06T19:53:36.810Z,14.20
2023-03-06T19:56:09.026Z,14.70
2023-03-06T19:58:36.444Z,15.88
2023-03-06T20:01:05.410Z,13.68
2023-03-06T20:03:32.590Z,16.80
2023-03-06T20:05:59.844Z,13.57
2023-03-06T20:08:26.930Z,14.27
2023-03-06T20:10:54.345Z,15.52
2023-03-06T20:13:21.376Z,15.30
2023-03-06T20:15:48.459Z,15.27
2023-03-06T20:18:15.625Z,19.17
2023-03-06T20:20:42.621Z,14.18
2023-03-06T20:23:09.711Z,14.15
2023-03-06T20:25:37.209Z,13.27
2023-03-06T20:28:05.092Z,13.23
2023-03-06T20:30:38.128Z,14.77
2023-03-06T20:33:05.936Z,14.18
2023-03-06T20:35:33.395Z,15.05
2023-03-06T20:38:00.902Z,13.65
2023-03-06T20:40:28.091Z,14.57
2023-03-06T20:42:55.070Z,15.63
2023-03-06T20:45:22.240Z,16.65
2023-03-06T20:47:49.617Z,15.73
2023-03-06T20:50:17.153Z,12.65
2023-03-06T20:52:44.727Z,16.88
2023-03-06T20:55:12.646Z,12.60
2023-03-06T20:57:39.788Z,14.50
2023-03-06T21:00:07.647Z,14.00
2023-03-06T21:02:34.572Z,12.25
2023-03-06T21:05:01.867Z,14.82
2023-03-06T21:07:29.602Z,12.95
2023-03-06T21:09:56.731Z,14.13
2023-03-06T21:12:23.780Z,33.25
2023-03-06T21:14:51.000Z,21.40
2023-03-06T21:17:18.110Z,14.93
2023-03-06T21:19:46.558Z,13.65
2023-03-06T21:22:14.359Z,13.45
2023-03-06T21:24:41.781Z,13.82
2023-03-06T21:27:09.229Z,17.67
2023-03-06T21:29:37.683Z,11.48
2023-03-06T21:32:05.309Z,13.10
2023-03-06T21:34:32.816Z,19.23
2023-03-06T21:36:59.817Z,13.80
2023-03-06T21:39:27.801Z,13.75
2023-03-06T21:41:55.175Z,15.50
2023-03-06T21:44:23.030Z,13.13
2023-03-06T21:46:50.610Z,15.63
2023-03-06T21:49:18.398Z,13.88
2023-03-06T21:51:45.675Z,14.20
2023-03-06T21:54:13.252Z,13.00
2023-03-06T21:56:40.311Z,12.90
2023-03-06T21:59:07.279Z,13.30
2023-03-06T22:01:34.428Z,14.68
2023-03-06T22:04:02.077Z,20.98
2023-03-06T22:06:31.009Z,15.00
2023-03-06T22:09:00.280Z,14.40
2023-03-06T22:11:31.727Z,15.77
2023-03-06T22:14:00.316Z,15.90
2023-03-06T22:16:27.347Z,14.68
2023-03-06T22:18:54.437Z,13.50
2023-03-06T22:21:24.681Z,13.00
2023-03-06T22:26:20.997Z,14.02
2023-03-06T22:28:49.607Z,14.88
2023-03-06T22:31:25.709Z,14.10
2023-03-06T22:33:54.155Z,19.13
2023-03-06T22:36:21.519Z,14.20
2023-03-06T22:38:48.766Z,17.88
2023-03-06T22:41:17.869Z,13.93
2023-03-06T22:43:45.220Z,15.23
2023-03-06T22:46:13.967Z,13.68
2023-03-06T22:48:44.362Z,15.40
2023-03-06T22:51:16.325Z,16.90
2023-03-06T22:53:43.772Z,16.00
2023-03-06T22:56:14.515Z,15.55
2023-03-06T22:58:41.840Z,13.98
2023-03-06T23:01:23.439Z,19.77
2023-03-06T23:03:51.559Z,19.40
2023-03-06T23:06:19.522Z,20.35
2023-03-06T23:08:54.314Z,16.00
2023-03-06T23:11:22.782Z,14.27
2023-03-06T23:14:12.184Z,16.73
2023-03-06T23:16:57.825Z,14.02
2023-03-06T23:19:43.789Z,14.77
2023-03-06T23:22:31.040Z,14.88
2023-03-06T23:25:17.495Z,15.60
2023-03-06T23:27:45.040Z,15.00
2023-03-06T23:30:12.630Z,17.45
2023-03-06T23:32:40.940Z,16.60
2023-03-06T23:35:08.752Z,14.75
2023-03-06T23:37:36.676Z,15.07
2023-03-06T23:40:06.227Z,14.32
2023-03-06T23:42:35.629Z,12.75
2023-03-06T23:45:04.332Z,14.73
2023-03-06T23:47:33.928Z,13.13
2023-03-06T23:50:00.979Z,14.48
2023-03-06T23:52:28.247Z,14.43
2023-03-06T23:54:56.876Z,13.20
2023-03-06T23:57:24.256Z,13.70
2023-03-06T23:59:51.746Z,15.10
